sensor_id;sensor_type;location;lat;lon;timestamp;pressure;altitude;pressure_sealevel;temperature;humidity
33404;BME280;19751;40.274;18.268;2023-05-10T00:01:30;100960.50;;;17.10;100.00
33404;BME280;19751;40.274;18.268;2023-05-10T00:03:55;100956.13;;;17.09;100.00
33404;BME280;19751;40.274;18.268;2023-05-10T00:06:21;100949.63;;;17.10;100.00
33404;BME280;19751;40.274;18.268;2023-05-10T00:08:47;100944.78;;;17.12;100.00
33404;BME280;19751;40.274;18.268;2023-05-10T00:11:12;100943.75;;;17.13;100.00
33404;BME280;19751;40.274;18.268;2023-05-10T00:13:38;100946.09;;;17.09;100.00
33404;BME280;19751;40.274;18.268;2023-05-10T00:16:03;100945.69;;;17.06;100.00
33404;BME280;19751;40.274;18.268;2023-05-10T00:18:29;100934.88;;;16.99;100.00
33404;BME280;19751;40.274;18.268;2023-05-10T00:20:54;100936.19;;;16.97;100.00
33404;BME280;19751;40.274;18.268;2023-05-10T00:23:20;100927.25;;;16.89;100.00
33404;BME280;19751;40.274;18.268;2023-05-10T00:25:45;100927.69;;;16.86;100.00
33404;BME280;19751;40.274;18.268;2023-05-10T00:28:11;100920.22;;;16.82;100.00
33404;BME280;19751;40.274;18.268;2023-05-10T00:30:36;100916.91;;;16.80;100.00
33404;BME280;19751;40.274;18.268;2023-05-10T00:33:02;100915.59;;;16.82;100.00
33404;BME280;19751;40.274;18.268;2023-05-10T00:35:28;100915.59;;;16.82;100.00
33404;BME280;19751;40.274;18.268;2023-05-10T00:37:53;100919.41;;;16.81;100.00
33404;BME280;19751;40.274;18.268;2023-05-10T00:40:19;100908.06;;;16.84;100.00
33404;BME280;19751;40.274;18.268;2023-05-10T00:42:44;100912.44;;;16.85;100.00
33404;BME280;19751;40.274;18.268;2023-05-10T00:45:10;100902.84;;;16.83;100.00
33404;BME280;19751;40.274;18.268;2023-05-10T00:47:36;100907.75;;;16.74;100.00
33404;BME280;19751;40.274;18.268;2023-05-10T00:50:02;100901.31;;;16.69;100.00
33404;BME280;19751;40.274;18.268;2023-05-10T00:52:28;100901.31;;;16.69;100.00
33404;BME280;19751;40.274;18.268;2023-05-10T00:54:54;100898.34;;;16.70;100.00
33404;BME280;19751;40.274;18.268;2023-05-10T00:57:21;100901.69;;;16.72;100.00
33404;BME280;19751;40.274;18.268;2023-05-10T00:59:46;100895.81;;;16.75;100.00
33404;BME280;19751;40.274;18.268;2023-05-10T01:02:12;100889.91;;;16.78;100.00
33404;BME280;19751;40.274;18.268;2023-05-10T01:04:38;100894.16;;;16.74;100.00
33404;BME280;19751;40.274;18.268;2023-05-10T01:07:05;100889.31;;;16.76;100.00
33404;BME280;19751;40.274;18.268;2023-05-10T01:09:30;100894.28;;;16.79;100.00
33404;BME280;19751;40.274;18.268;2023-05-10T01:11:56;100882.13;;;16.82;100.00
33404;BME280;19751;40.274;18.268;2023-05-10T01:14:22;100877.97;;;16.79;100.00
33404;BME280;19751;40.274;18.268;2023-05-10T01:16:49;100879.03;;;16.78;100.00
33404;BME280;19751;40.274;18.268;2023-05-10T01:19:26;100876.56;;;16.77;100.00
33404;BME280;19751;40.274;18.268;2023-05-10T01:41:50;100858.69;;;16.99;100.00
33404;BME280;19751;40.274;18.268;2023-05-10T01:46:52;100852.41;;;16.99;100.00
33404;BME280;19751;40.274;18.268;2023-05-10T01:49:26;100853.03;;;17.01;100.00
33404;BME280;19751;40.274;18.268;2023-05-10T01:51:54;100848.41;;;17.01;100.00
33404;BME280;19751;40.274;18.268;2023-05-10T01:54:24;100851.97;;;17.02;100.00
33404;BME280;19751;40.274;18.268;2023-05-10T01:56:56;100853.03;;;17.01;100.00
33404;BME280;19751;40.274;18.268;2023-05-10T01:59:28;100841.09;;;17.02;100.00
33404;BME280;19751;40.274;18.268;2023-05-10T02:01:57;100850.91;;;17.03;100.00
33404;BME280;19751;40.274;18.268;2023-05-10T02:04:25;100846.06;;;17.05;100.00
33404;BME280;19751;40.274;18.268;2023-05-10T02:06:52;100847.13;;;17.04;100.00
33404;BME280;19751;40.274;18.268;2023-05-10T02:09:20;100841.91;;;17.02;100.00
33404;BME280;19751;40.274;18.268;2023-05-10T02:11:48;100844.88;;;17.01;100.00
33404;BME280;19751;40.274;18.268;2023-05-10T02:14:15;100847.59;;;17.01;100.00
33404;BME280;19751;40.274;18.268;2023-05-10T02:16:42;100840.25;;;17.01;100.00
33404;BME280;19751;40.274;18.268;2023-05-10T02:19:10;100850.06;;;17.02;100.00
33404;BME280;19751;40.274;18.268;2023-05-10T02:21:39;100847.50;;;17.07;100.00
33404;BME280;19751;40.274;18.268;2023-05-10T02:24:05;100848.09;;;17.09;100.00
33404;BME280;19751;40.274;18.268;2023-05-10T02:26:34;100853.94;;;17.13;100.00
33404;BME280;19751;40.274;18.268;2023-05-10T02:29:05;100846.34;;;17.15;100.00
33404;BME280;19751;40.274;18.268;2023-05-10T02:31:32;100845.28;;;17.16;100.00
33404;BME280;19751;40.274;18.268;2023-05-10T02:33:59;100850.34;;;17.12;100.00
33404;BME280;19751;40.274;18.268;2023-05-10T02:36:27;100849.63;;;17.05;100.00
33404;BME280;19751;40.274;18.268;2023-05-10T02:38:53;100844.13;;;16.94;100.00
33404;BME280;19751;40.274;18.268;2023-05-10T02:41:20;100844.56;;;16.90;100.00
33404;BME280;19751;40.274;18.268;2023-05-10T02:43:50;100845.03;;;16.87;100.00
33404;BME280;19751;40.274;18.268;2023-05-10T02:46:17;100840.06;;;16.84;100.00
33404;BME280;19751;40.274;18.268;2023-05-10T02:48:42;100840.06;;;16.84;100.00
33404;BME280;19751;40.274;18.268;2023-05-10T02:51:08;100843.59;;;16.85;100.00
33404;BME280;19751;40.274;18.268;2023-05-10T02:53:40;100835.19;;;16.86;100.00
33404;BME280;19751;40.274;18.268;2023-05-10T02:56:15;100835.59;;;16.90;100.00
33404;BME280;19751;40.274;18.268;2023-05-10T02:58:45;100834.31;;;16.93;100.00
33404;BME280;19751;40.274;18.268;2023-05-10T03:01:11;100833.81;;;16.96;100.00
33404;BME280;19751;40.274;18.268;2023-05-10T03:03:37;100822.50;;;16.99;100.00
33404;BME280;19751;40.274;18.268;2023-05-10T03:06:02;100834.56;;;17.03;100.00
33404;BME280;19751;40.274;18.268;2023-05-10T03:08:28;100832.69;;;17.03;100.00
33404;BME280;19751;40.274;18.268;2023-05-10T03:11:32;100832.09;;;17.01;100.00
33404;BME280;19751;40.274;18.268;2023-05-10T03:18:15;100825.22;;;16.99;100.00
33404;BME280;19751;40.274;18.268;2023-05-10T03:20:36;100829.00;;;16.98;100.00
33404;BME280;19751;40.274;18.268;2023-05-10T03:23:35;100826.28;;;16.98;100.00
33404;BME280;19751;40.274;18.268;2023-05-10T03:26:02;100826.53;;;16.96;100.00
33404;BME280;19751;40.274;18.268;2023-05-10T03:28:29;100832.16;;;16.95;100.00
33404;BME280;19751;40.274;18.268;2023-05-10T03:30:56;100835.34;;;16.92;100.00
33404;BME280;19751;40.274;18.268;2023-05-10T03:33:22;100838.53;;;16.88;100.00
33404;BME280;19751;40.274;18.268;2023-05-10T03:35:48;100850.13;;;16.84;100.00
33404;BME280;19751;40.274;18.268;2023-05-10T03:38:13;100836.72;;;16.82;100.00
33404;BME280;19751;40.274;18.268;2023-05-10T03:40:39;100849.94;;;16.79;100.00
33404;BME280;19751;40.274;18.268;2023-05-10T03:43:04;100850.41;;;16.76;100.00
33404;BME280;19751;40.274;18.268;2023-05-10T03:45:30;100849.19;;;16.72;100.00
33404;BME280;19751;40.274;18.268;2023-05-10T03:47:59;100855.06;;;16.69;100.00
33404;BME280;19751;40.274;18.268;2023-05-10T03:50:25;100854.69;;;16.65;100.00
33404;BME280;19751;40.274;18.268;2023-05-10T03:52:51;100861.19;;;16.64;100.00
33404;BME280;19751;40.274;18.268;2023-05-10T03:55:17;100858.22;;;16.65;100.00
33404;BME280;19751;40.274;18.268;2023-05-10T03:57:42;100854.25;;;16.68;100.00
33404;BME280;19751;40.274;18.268;2023-05-10T04:00:09;100863.00;;;16.70;100.00
33404;BME280;19751;40.274;18.268;2023-05-10T04:02:35;100862.16;;;16.70;100.00
33404;BME280;19751;40.274;18.268;2023-05-10T04:05:00;100862.41;;;16.68;100.00
33404;BME280;19751;40.274;18.268;2023-05-10T04:07:26;100869.25;;;16.71;100.00
33404;BME280;19751;40.274;18.268;2023-05-10T04:09:52;100866.31;;;16.72;100.00
33404;BME280;19751;40.274;18.268;2023-05-10T04:12:17;100865.88;;;16.75;100.00
33404;BME280;19751;40.274;18.268;2023-05-10T04:14:43;100872.53;;;16.79;100.00
33404;BME280;19751;40.274;18.268;2023-05-10T04:17:08;100874.81;;;16.82;100.00
33404;BME280;19751;40.274;18.268;2023-05-10T04:19:34;100880.88;;;16.84;100.00
33404;BME280;19751;40.274;18.268;2023-05-10T04:21:59;100874.94;;;16.87;100.00
33404;BME280;19751;40.274;18.268;2023-05-10T04:24:25;100879.13;;;16.90;100.00
33404;BME280;19751;40.274;18.268;2023-05-10T04:26:51;100878.66;;;16.93;100.00
33404;BME280;19751;40.274;18.268;2023-05-10T04:29:16;100880.06;;;16.96;100.00
33404;BME280;19751;40.274;18.268;2023-05-10T04:31:42;100880.69;;;16.98;100.00
33404;BME280;19751;40.274;18.268;2023-05-10T04:34:07;100885.44;;;17.02;100.00
33404;BME280;19751;40.274;18.268;2023-05-10T04:36:33;100878.72;;;17.05;100.00
33404;BME280;19751;40.274;18.268;2023-05-10T04:39:01;100876.59;;;17.07;100.00
33404;BME280;19751;40.274;18.268;2023-05-10T04:41:28;100876.34;;;17.08;100.00
33404;BME280;19751;40.274;18.268;2023-05-10T04:43:54;100889.75;;;17.10;100.00
33404;BME280;19751;40.274;18.268;2023-05-10T04:46:19;100881.34;;;17.11;100.00
33404;BME280;19751;40.274;18.268;2023-05-10T04:48:45;100885.72;;;17.12;100.00
33404;BME280;19751;40.274;18.268;2023-05-10T04:51:11;100881.97;;;17.13;100.00
33404;BME280;19751;40.274;18.268;2023-05-10T04:53:36;100891.53;;;17.16;100.00
33404;BME280;19751;40.274;18.268;2023-05-10T04:56:02;100890.28;;;17.19;100.00
33404;BME280;19751;40.274;18.268;2023-05-10T04:58:27;100891.47;;;17.23;100.00
33404;BME280;19751;40.274;18.268;2023-05-10T05:00:53;100896.22;;;17.27;100.00
33404;BME280;19751;40.274;18.268;2023-05-10T05:03:18;100895.78;;;17.30;100.00
33404;BME280;19751;40.274;18.268;2023-05-10T05:05:44;100890.91;;;17.32;100.00
33404;BME280;19751;40.274;18.268;2023-05-10T05:08:10;100891.03;;;17.37;100.00
33404;BME280;19751;40.274;18.268;2023-05-10T05:10:35;100898.19;;;17.38;100.00
33404;BME280;19751;40.274;18.268;2023-05-10T05:13:01;100897.09;;;17.39;100.00
33404;BME280;19751;40.274;18.268;2023-05-10T05:15:26;100889.75;;;17.40;100.00
33404;BME280;19751;40.274;18.268;2023-05-10T05:17:52;100896.66;;;17.43;100.00
33404;BME280;19751;40.274;18.268;2023-05-10T05:20:18;100887.41;;;17.44;100.00
33404;BME280;19751;40.274;18.268;2023-05-10T05:22:44;100889.69;;;17.47;100.00
33404;BME280;19751;40.274;18.268;2023-05-10T05:25:10;100891.47;;;17.53;100.00
33404;BME280;19751;40.274;18.268;2023-05-10T05:27:36;100885.56;;;17.56;100.00
33404;BME280;19751;40.274;18.268;2023-05-10T05:30:02;100885.69;;;17.61;100.00
33404;BME280;19751;40.274;18.268;2023-05-10T05:32:28;100890.69;;;17.64;100.00
33404;BME280;19751;40.274;18.268;2023-05-10T05:34:53;100888.09;;;17.69;100.00
33404;BME280;19751;40.274;18.268;2023-05-10T05:37:20;100895.56;;;17.74;100.00
33404;BME280;19751;40.274;18.268;2023-05-10T05:39:46;100886.97;;;17.77;100.00
33404;BME280;19751;40.274;18.268;2023-05-10T05:42:13;100881.63;;;17.82;100.00
33404;BME280;19751;40.274;18.268;2023-05-10T05:44:39;100879.03;;;17.87;100.00
33404;BME280;19751;40.274;18.268;2023-05-10T05:47:05;100881.06;;;17.92;100.00
33404;BME280;19751;40.274;18.268;2023-05-10T05:49:32;100882.47;;;17.94;100.00
33404;BME280;19751;40.274;18.268;2023-05-10T05:52:01;100885.31;;;17.99;100.00
33404;BME280;19751;40.274;18.268;2023-05-10T05:54:27;100886.31;;;18.05;100.00
33404;BME280;19751;40.274;18.268;2023-05-10T05:56:57;100888.53;;;18.08;100.00
33404;BME280;19751;40.274;18.268;2023-05-10T05:59:23;100893.78;;;18.09;100.00
33404;BME280;19751;40.274;18.268;2023-05-10T06:01:49;100898.75;;;18.12;100.00
33404;BME280;19751;40.274;18.268;2023-05-10T06:04:15;100895.53;;;18.16;100.00
33404;BME280;19751;40.274;18.268;2023-05-10T06:06:41;100896.25;;;18.23;100.00
33404;BME280;19751;40.274;18.268;2023-05-10T06:09:07;100901.00;;;18.27;100.00
33404;BME280;19751;40.274;18.268;2023-05-10T06:11:33;100894.25;;;18.30;100.00
33404;BME280;19751;40.274;18.268;2023-05-10T06:14:00;100892.72;;;18.34;100.00
33404;BME280;19751;40.274;18.268;2023-05-10T06:16:26;100886.44;;;18.33;100.00
33404;BME280;19751;40.274;18.268;2023-05-10T06:18:51;100896.03;;;18.36;100.00
33404;BME280;19751;40.274;18.268;2023-05-10T06:21:17;100908.13;;;18.40;100.00
33404;BME280;19751;40.274;18.268;2023-05-10T06:23:43;100896.50;;;18.45;100.00
33404;BME280;19751;40.274;18.268;2023-05-10T06:26:09;100901.47;;;18.48;100.00
33404;BME280;19751;40.274;18.268;2023-05-10T06:28:35;100902.66;;;18.52;100.00
33404;BME280;19751;40.274;18.268;2023-05-10T06:31:03;100897.94;;;18.59;100.00
33404;BME280;19751;40.274;18.268;2023-05-10T06:33:28;100907.50;;;18.61;100.00
33404;BME280;19751;40.274;18.268;2023-05-10T06:35:54;100905.97;;;18.66;100.00
33404;BME280;19751;40.274;18.268;2023-05-10T06:38:19;100913.47;;;18.70;100.00
33404;BME280;19751;40.274;18.268;2023-05-10T06:40:45;100912.41;;;18.71;100.00
33404;BME280;19751;40.274;18.268;2023-05-10T06:43:10;100919.06;;;18.75;100.00
33404;BME280;19751;40.274;18.268;2023-05-10T06:45:36;100912.53;;;18.76;100.00
33404;BME280;19751;40.274;18.268;2023-05-10T06:48:02;100913.72;;;18.80;100.00
33404;BME280;19751;40.274;18.268;2023-05-10T06:50:28;100910.00;;;18.86;100.00
33404;BME280;19751;40.274;18.268;2023-05-10T06:52:53;100898.63;;;18.90;100.00
33404;BME280;19751;40.274;18.268;2023-05-10T06:55:19;100907.41;;;18.92;100.00
33404;BME280;19751;40.274;18.268;2023-05-10T06:57:44;100907.50;;;18.97;100.00
33404;BME280;19751;40.274;18.268;2023-05-10T07:00:10;100901.06;;;19.03;100.00
33404;BME280;19751;40.274;18.268;2023-05-10T07:02:36;100904.50;;;19.10;100.00
33404;BME280;19751;40.274;18.268;2023-05-10T07:05:02;100897.84;;;19.18;100.00
33404;BME280;19751;40.274;18.268;2023-05-10T07:07:27;100896.53;;;19.20;100.00
33404;BME280;19751;40.274;18.268;2023-05-10T07:09:54;100891.06;;;19.20;100.00
33404;BME280;19751;40.274;18.268;2023-05-10T07:12:21;100892.47;;;19.23;100.00
33404;BME280;19751;40.274;18.268;2023-05-10T07:14:47;100888.44;;;19.25;100.00
33404;BME280;19751;40.274;18.268;2023-05-10T07:17:12;100881.16;;;19.31;100.00
33404;BME280;19751;40.274;18.268;2023-05-10T07:19:38;100881.03;;;19.37;100.00
33404;BME280;19751;40.274;18.268;2023-05-10T07:22:03;100882.19;;;19.42;100.00
33404;BME280;19751;40.274;18.268;2023-05-10T07:24:29;100890.72;;;19.45;100.00
33404;BME280;19751;40.274;18.268;2023-05-10T07:26:55;100882.63;;;19.50;100.00
33404;BME280;19751;40.274;18.268;2023-05-10T07:29:20;100879.06;;;19.50;100.00
33404;BME280;19751;40.274;18.268;2023-05-10T07:31:46;100880.72;;;19.51;100.00
33404;BME280;19751;40.274;18.268;2023-05-10T07:34:11;100874.16;;;19.52;100.00
33404;BME280;19751;40.274;18.268;2023-05-10T07:36:37;100874.84;;;19.59;100.00
33404;BME280;19751;40.274;18.268;2023-05-10T07:39:02;100875.31;;;19.68;100.00
33404;BME280;19751;40.274;18.268;2023-05-10T07:41:28;100877.91;;;19.74;100.00
33404;BME280;19751;40.274;18.268;2023-05-10T07:43:53;100884.75;;;19.77;100.00
33404;BME280;19751;40.274;18.268;2023-05-10T07:46:19;100878.47;;;19.76;100.00
33404;BME280;19751;40.274;18.268;2023-05-10T07:48:45;100881.28;;;19.81;100.00
33404;BME280;19751;40.274;18.268;2023-05-10T07:51:10;100884.00;;;19.81;100.00
33404;BME280;19751;40.274;18.268;2023-05-10T07:53:37;100888.50;;;19.88;100.00
33404;BME280;19751;40.274;18.268;2023-05-10T07:56:24;100886.34;;;19.90;100.00
33404;BME280;19751;40.274;18.268;2023-05-10T07:58:51;100884.75;;;19.94;98.38
33404;BME280;19751;40.274;18.268;2023-05-10T08:01:16;100873.34;;;19.97;96.53
33404;BME280;19751;40.274;18.268;2023-05-10T08:03:42;100885.44;;;20.01;96.09
33404;BME280;19751;40.274;18.268;2023-05-10T08:06:07;100889.81;;;20.02;96.73
33404;BME280;19751;40.274;18.268;2023-05-10T08:08:33;100888.16;;;20.01;96.46
33404;BME280;19751;40.274;18.268;2023-05-10T08:10:58;100894.72;;;20.00;94.96
33404;BME280;19751;40.274;18.268;2023-05-10T08:13:24;100892.56;;;20.02;91.21
33404;BME280;19751;40.274;18.268;2023-05-10T08:15:49;100897.28;;;20.06;89.61
33404;BME280;19751;40.274;18.268;2023-05-10T08:18:18;100899.78;;;20.08;89.23
33404;BME280;19751;40.274;18.268;2023-05-10T08:20:43;100891.06;;;20.11;90.00
33404;BME280;19751;40.274;18.268;2023-05-10T08:23:09;100899.59;;;20.15;88.72
33404;BME280;19751;40.274;18.268;2023-05-10T08:25:34;100898.84;;;20.19;90.88
33404;BME280;19751;40.274;18.268;2023-05-10T08:28:00;100901.59;;;20.19;91.26
33404;BME280;19751;40.274;18.268;2023-05-10T08:30:25;100903.00;;;20.22;91.15
33404;BME280;19751;40.274;18.268;2023-05-10T08:32:52;100890.75;;;20.24;91.18
33404;BME280;19751;40.274;18.268;2023-05-10T08:35:17;100900.09;;;20.28;89.39
33404;BME280;19751;40.274;18.268;2023-05-10T08:37:43;100900.41;;;20.32;89.78
33404;BME280;19751;40.274;18.268;2023-05-10T08:40:09;100902.09;;;20.33;89.68
33404;BME280;19751;40.274;18.268;2023-05-10T08:42:39;100902.41;;;20.36;90.21
33404;BME280;19751;40.274;18.268;2023-05-10T08:45:07;100897.03;;;20.42;89.68
33404;BME280;19751;40.274;18.268;2023-05-10T08:47:35;100907.69;;;20.43;89.63
33404;BME280;19751;40.274;18.268;2023-05-10T08:50:02;100903.06;;;20.44;90.33
33404;BME280;19751;40.274;18.268;2023-05-10T08:52:30;100905.16;;;20.36;88.28
33404;BME280;19751;40.274;18.268;2023-05-10T08:54:56;100909.78;;;20.36;89.95
33404;BME280;19751;40.274;18.268;2023-05-10T08:57:22;100903.81;;;20.39;90.17
33404;BME280;19751;40.274;18.268;2023-05-10T08:59:47;100901.75;;;20.46;91.45
33404;BME280;19751;40.274;18.268;2023-05-10T09:02:13;100902.91;;;20.50;92.11
33404;BME280;19751;40.274;18.268;2023-05-10T09:04:39;100908.28;;;20.62;92.28
33404;BME280;19751;40.274;18.268;2023-05-10T09:07:06;100896.91;;;20.70;92.17
33404;BME280;19751;40.274;18.268;2023-05-10T09:09:33;100895.88;;;20.76;94.41
33404;BME280;19751;40.274;18.268;2023-05-10T09:12:00;100900.88;;;20.79;94.39
33404;BME280;19751;40.274;18.268;2023-05-10T09:14:25;100894.25;;;20.75;92.61
33404;BME280;19751;40.274;18.268;2023-05-10T09:16:53;100888.28;;;20.78;92.30
33404;BME280;19751;40.274;18.268;2023-05-10T09:19:20;100889.41;;;20.82;93.29
33404;BME280;19751;40.274;18.268;2023-05-10T09:21:45;100883.94;;;20.82;95.77
33404;BME280;19751;40.274;18.268;2023-05-10T09:24:11;100886.84;;;20.76;96.26
33404;BME280;19751;40.274;18.268;2023-05-10T09:26:46;100885.75;;;20.77;97.52
33404;BME280;19751;40.274;18.268;2023-05-10T09:29:13;100884.69;;;20.78;96.29
33404;BME280;19751;40.274;18.268;2023-05-10T09:31:52;100879.47;;;20.76;94.10
33404;BME280;19751;40.274;18.268;2023-05-10T09:34:32;100884.44;;;20.79;92.26
33404;BME280;19751;40.274;18.268;2023-05-10T09:37:01;100880.13;;;20.83;87.22
33404;BME280;19751;40.274;18.268;2023-05-10T09:39:32;100885.41;;;20.90;86.23
33404;BME280;19751;40.274;18.268;2023-05-10T09:41:58;100889.53;;;20.93;82.81
33404;BME280;19751;40.274;18.268;2023-05-10T09:44:25;100884.94;;;20.98;82.00
33404;BME280;19751;40.274;18.268;2023-05-10T09:46:51;100883.06;;;20.99;80.41
33404;BME280;19751;40.274;18.268;2023-05-10T09:49:19;100877.88;;;21.02;78.93
33404;BME280;19751;40.274;18.268;2023-05-10T09:51:45;100881.50;;;21.08;75.97
33404;BME280;19751;40.274;18.268;2023-05-10T09:54:15;100879.34;;;21.10;76.04
33404;BME280;19751;40.274;18.268;2023-05-10T09:56:41;100876.13;;;21.18;72.92
33404;BME280;19751;40.274;18.268;2023-05-10T09:59:11;100883.03;;;21.21;71.01
33404;BME280;19751;40.274;18.268;2023-05-10T10:01:38;100875.13;;;21.24;72.63
33404;BME280;19751;40.274;18.268;2023-05-10T10:04:05;100868.06;;;21.28;72.95
33404;BME280;19751;40.274;18.268;2023-05-10T10:06:38;100862.03;;;21.31;71.51
33404;BME280;19751;40.274;18.268;2023-05-10T10:09:08;100862.91;;;21.32;68.69
33404;BME280;19751;40.274;18.268;2023-05-10T10:11:35;100857.66;;;21.30;68.58
33404;BME280;19751;40.274;18.268;2023-05-10T10:14:01;100854.34;;;21.28;68.72
33404;BME280;19751;40.274;18.268;2023-05-10T10:16:29;100858.25;;;21.32;65.85
33404;BME280;19751;40.274;18.268;2023-05-10T10:18:55;100855.00;;;21.35;64.99
33404;BME280;19751;40.274;18.268;2023-05-10T10:21:22;100854.78;;;21.42;66.37
33404;BME280;19751;40.274;18.268;2023-05-10T10:23:47;100851.59;;;21.50;66.24
33404;BME280;19751;40.274;18.268;2023-05-10T10:26:14;100858.00;;;21.61;65.05
33404;BME280;19751;40.274;18.268;2023-05-10T10:35:11;100857.75;;;21.95;62.76
33404;BME280;19751;40.274;18.268;2023-05-10T10:37:45;100859.38;;;21.96;63.65
33404;BME280;19751;40.274;18.268;2023-05-10T10:40:31;100862.44;;;21.99;63.18
33404;BME280;19751;40.274;18.268;2023-05-10T10:42:57;100850.38;;;22.00;63.21
33404;BME280;19751;40.274;18.268;2023-05-10T10:45:26;100856.94;;;21.99;61.80
33404;BME280;19751;40.274;18.268;2023-05-10T10:48:22;100853.94;;;22.01;60.96
33404;BME280;19751;40.274;18.268;2023-05-10T10:50:56;100858.31;;;22.02;61.32
33404;BME280;19751;40.274;18.268;2023-05-10T10:53:22;100857.25;;;22.03;61.10
33404;BME280;19751;40.274;18.268;2023-05-10T10:55:48;100852.00;;;22.01;60.69
33404;BME280;19751;40.274;18.268;2023-05-10T10:58:32;100862.16;;;22.01;61.17
33404;BME280;19751;40.274;18.268;2023-05-10T11:01:15;100856.94;;;21.99;61.38
33404;BME280;19751;40.274;18.268;2023-05-10T11:04:16;100862.69;;;21.98;61.50
33404;BME280;19751;40.274;18.268;2023-05-10T11:06:39;100856.91;;;21.94;60.97
33404;BME280;19751;40.274;18.268;2023-05-10T11:09:07;100862.34;;;21.89;61.32
33404;BME280;19751;40.274;18.268;2023-05-10T11:11:34;100861.47;;;21.83;62.04
33404;BME280;19751;40.274;18.268;2023-05-10T11:14:04;100854.31;;;21.77;63.94
33404;BME280;19751;40.274;18.268;2023-05-10T11:16:44;100849.09;;;21.81;65.87
33404;BME280;19751;40.274;18.268;2023-05-10T11:19:13;100852.19;;;21.90;65.46
33404;BME280;19751;40.274;18.268;2023-05-10T11:24:30;100849.44;;;21.90;64.52
33404;BME280;19751;40.274;18.268;2023-05-10T11:26:56;100845.34;;;21.87;65.99
33404;BME280;19751;40.274;18.268;2023-05-10T11:29:22;100844.75;;;21.85;67.16
33404;BME280;19751;40.274;18.268;2023-05-10T11:31:48;100849.97;;;21.81;69.01
33404;BME280;19751;40.274;18.268;2023-05-10T11:34:31;100847.72;;;21.78;68.31
33404;BME280;19751;40.274;18.268;2023-05-10T11:37:00;100853.72;;;21.75;69.08
33404;BME280;19751;40.274;18.268;2023-05-10T11:39:27;100847.44;;;21.75;71.17
33404;BME280;19751;40.274;18.268;2023-05-10T11:41:53;100852.06;;;21.69;72.54
33404;BME280;19751;40.274;18.268;2023-05-10T11:44:18;100852.28;;;21.68;74.51
33404;BME280;19751;40.274;18.268;2023-05-10T11:46:44;100854.00;;;21.74;74.62
33404;BME280;19751;40.274;18.268;2023-05-10T11:49:10;100852.09;;;21.74;73.44
33404;BME280;19751;40.274;18.268;2023-05-10T11:51:36;100850.16;;;21.75;72.60
33404;BME280;19751;40.274;18.268;2023-05-10T11:54:06;100848.84;;;21.77;73.67
33404;BME280;19751;40.274;18.268;2023-05-10T11:56:33;100852.16;;;21.84;71.63
33404;BME280;19751;40.274;18.268;2023-05-10T11:58:59;100847.22;;;21.81;71.63
33404;BME280;19751;40.274;18.268;2023-05-10T12:01:27;100854.34;;;21.82;73.62
33404;BME280;19751;40.274;18.268;2023-05-10T12:03:56;100861.16;;;21.80;73.81
33404;BME280;19751;40.274;18.268;2023-05-10T12:06:32;100856.44;;;21.70;73.35
33404;BME280;19751;40.274;18.268;2023-05-10T12:09:06;100855.50;;;21.59;71.78
33404;BME280;19751;40.274;18.268;2023-05-10T12:11:37;100845.59;;;21.53;71.24
33404;BME280;19751;40.274;18.268;2023-05-10T12:14:04;100846.94;;;21.51;70.71
33404;BME280;19751;40.274;18.268;2023-05-10T12:16:30;100851.59;;;21.50;69.02
33404;BME280;19751;40.274;18.268;2023-05-10T12:18:58;100846.63;;;21.47;66.06
33404;BME280;19751;40.274;18.268;2023-05-10T12:21:25;100843.31;;;21.45;66.78
33404;BME280;19751;40.274;18.268;2023-05-10T12:23:52;100849.63;;;21.46;68.31
33404;BME280;19751;40.274;18.268;2023-05-10T12:26:21;100846.84;;;21.41;70.93
33404;BME280;19751;40.274;18.268;2023-05-10T12:28:47;100847.91;;;21.40;73.15
33404;BME280;19751;40.274;18.268;2023-05-10T12:31:12;100844.63;;;21.38;72.88
33404;BME280;19751;40.274;18.268;2023-05-10T12:33:42;100839.09;;;21.32;73.49
33404;BME280;19751;40.274;18.268;2023-05-10T12:36:09;100840.06;;;21.26;73.92
33404;BME280;19751;40.274;18.268;2023-05-10T12:38:41;100842.22;;;21.19;74.96
33404;BME280;19751;40.274;18.268;2023-05-10T12:41:16;100842.94;;;21.15;75.71
33404;BME280;19751;40.274;18.268;2023-05-10T12:43:43;100844.31;;;21.12;75.78
33404;BME280;19751;40.274;18.268;2023-05-10T12:46:13;100832.31;;;21.18;75.88
33404;BME280;19751;40.274;18.268;2023-05-10T12:48:40;100835.72;;;21.30;75.04
33404;BME280;19751;40.274;18.268;2023-05-10T12:51:07;100833.69;;;21.43;73.66
33404;BME280;19751;40.274;18.268;2023-05-10T12:53:37;100837.94;;;21.55;72.17
33404;BME280;19751;40.274;18.268;2023-05-10T12:56:03;100833.88;;;21.63;71.71
33404;BME280;19751;40.274;18.268;2023-05-10T12:58:29;100827.88;;;21.66;70.91
33404;BME280;19751;40.274;18.268;2023-05-10T13:00:55;100839.69;;;21.67;70.37
33404;BME280;19751;40.274;18.268;2023-05-10T13:03:30;100827.06;;;21.66;69.70
33404;BME280;19751;40.274;18.268;2023-05-10T13:05:57;100835.53;;;21.64;70.27
33404;BME280;19751;40.274;18.268;2023-05-10T13:08:22;100828.41;;;21.63;70.00
33404;BME280;19751;40.274;18.268;2023-05-10T13:10:48;100835.81;;;21.63;70.35